Time;durP1;ratioP1;P1;durP2;ratioP2;P2;SDS_P1;SDS_P2;PMS_P1;PMS_P2;Temp;Humidity;BMP_temperature;BMP_pressure;BME280_temperature;BME280_humidity;BME280_pressure;Samples;Min_cycle;Max_cycle;Signal;HPM_P1;HPM_P2
2021/08/29 00:00:57;;;;;;;3.7;3.4;;;;;;;11.08;100;95301.08;;;;
2021/08/29 00:01:58;;;;;;;3.7;3.4;;;;;;;11.08;100;95301.08;;;;
2021/08/29 00:02:58;;;;;;;3.7;3.4;;;;;;;11.08;100;95301.08;;;;
2021/08/29 00:03:59;;;;;;;3.7;3.4;;;;;;;11.08;100;95301.08;;;;
2021/08/29 00:05:00;;;;;;;3.7;3.4;;;;;;;11.08;100;95301.08;;;;
2021/08/29 00:06:00;;;;;;;3.7;3.4;;;;;;;11.08;100;95301.08;;;;
2021/08/29 00:07:01;;;;;;;3.7;3.4;;;;;;;11.08;100;95301.08;;;;
2021/08/29 00:08:01;;;;;;;3.7;3.4;;;;;;;11.08;100;95301.08;;;;
2021/08/29 00:09:02;;;;;;;3.7;3.4;;;;;;;11.08;100;95301.08;;;;
2021/08/29 00:10:04;;;;;;;4.45;3.6;;;;;;;10.84;100;95290.32;;;;
2021/08/29 00:11:06;;;;;;;4.45;3.6;;;;;;;10.84;100;95290.32;;;;
2021/08/29 00:12:07;;;;;;;4.45;3.6;;;;;;;10.84;100;95290.32;;;;
2021/08/29 00:13:08;;;;;;;4.45;3.6;;;;;;;10.84;100;95290.32;;;;
2021/08/29 00:14:08;;;;;;;4.45;3.6;;;;;;;10.84;100;95290.32;;;;
2021/08/29 00:15:09;;;;;;;4.45;3.6;;;;;;;10.84;100;95290.32;;;;
2021/08/29 00:16:10;;;;;;;4.45;3.6;;;;;;;10.84;100;95290.32;;;;
2021/08/29 00:17:11;;;;;;;4.45;3.6;;;;;;;10.84;100;95290.32;;;;
2021/08/29 00:18:11;;;;;;;4.45;3.6;;;;;;;10.84;100;95290.32;;;;
2021/08/29 00:19:12;;;;;;;4.45;3.6;;;;;;;10.84;100;95290.32;;;;
2021/08/29 00:20:13;;;;;;;4.45;3.6;;;;;;;10.84;100;95290.32;;;;
2021/08/29 00:21:13;;;;;;;3.8;3.4;;;;;;;10.62;100;95289.28;;;;
2021/08/29 00:22:14;;;;;;;3.8;3.4;;;;;;;10.62;100;95289.28;;;;
2021/08/29 00:23:15;;;;;;;3.8;3.4;;;;;;;10.62;100;95289.28;;;;
2021/08/29 00:24:15;;;;;;;3.8;3.4;;;;;;;10.62;100;95289.28;;;;
2021/08/29 00:25:16;;;;;;;3.8;3.4;;;;;;;10.62;100;95289.28;;;;
2021/08/29 00:26:16;;;;;;;3.8;3.4;;;;;;;10.62;100;95289.28;;;;
2021/08/29 00:27:17;;;;;;;3.8;3.4;;;;;;;10.62;100;95289.28;;;;
2021/08/29 00:28:17;;;;;;;3.8;3.4;;;;;;;10.62;100;95289.28;;;;
2021/08/29 00:29:18;;;;;;;3.8;3.4;;;;;;;10.62;100;95289.28;;;;
2021/08/29 00:30:19;;;;;;;3.8;3.4;;;;;;;10.62;100;95289.28;;;;
2021/08/29 00:31:19;;;;;;;3.9;3.6;;;;;;;10.42;100;95290.16;;;;
2021/08/29 00:32:20;;;;;;;3.9;3.6;;;;;;;10.42;100;95290.16;;;;
2021/08/29 00:33:20;;;;;;;3.9;3.6;;;;;;;10.42;100;95290.16;;;;
2021/08/29 00:34:21;;;;;;;3.9;3.6;;;;;;;10.42;100;95290.16;;;;
2021/08/29 00:35:21;;;;;;;3.9;3.6;;;;;;;10.42;100;95290.16;;;;
2021/08/29 00:36:22;;;;;;;3.9;3.6;;;;;;;10.42;100;95290.16;;;;
2021/08/29 00:37:22;;;;;;;3.9;3.6;;;;;;;10.42;100;95290.16;;;;
2021/08/29 00:38:23;;;;;;;3.9;3.6;;;;;;;10.42;100;95290.16;;;;
2021/08/29 00:39:24;;;;;;;3.9;3.6;;;;;;;10.42;100;95290.16;;;;
2021/08/29 00:40:25;;;;;;;3.9;3.6;;;;;;;10.42;100;95290.16;;;;
2021/08/29 00:41:25;;;;;;;3.9;3.6;;;;;;;10.42;100;95290.16;;;;
2021/08/29 00:42:26;;;;;;;3.9;3.6;;;;;;;10.42;100;95290.16;;;;
2021/08/29 00:43:27;;;;;;;3.9;3.6;;;;;;;10.42;100;95290.16;;;;
2021/08/29 00:44:27;;;;;;;3.9;3.6;;;;;;;10.42;100;95290.16;;;;
2021/08/29 00:45:28;;;;;;;3.9;3.6;;;;;;;10.42;100;95290.16;;;;
2021/08/29 00:46:29;;;;;;;3.9;3.6;;;;;;;10.42;100;95290.16;;;;
2021/08/29 00:47:35;;;;;;;3.9;3.6;;;;;;;10.42;100;95290.16;;;;
2021/08/29 00:48:35;;;;;;;3.9;3.6;;;;;;;10.42;100;95290.16;;;;
2021/08/29 00:49:36;;;;;;;3.9;3.6;;;;;;;10.42;100;95290.16;;;;
2021/08/29 00:50:37;;;;;;;3.9;3.6;;;;;;;10.42;100;95290.16;;;;
2021/08/29 00:51:37;;;;;;;3.9;3.6;;;;;;;10.42;100;95290.16;;;;
2021/08/29 00:52:38;;;;;;;3.9;3.6;;;;;;;10.42;100;95290.16;;;;
2021/08/29 00:53:39;;;;;;;4.25;3.85;;;;;;;10.55;100;95286.81;;;;
2021/08/29 00:54:44;;;;;;;4.25;3.85;;;;;;;10.55;100;95286.81;;;;
2021/08/29 00:55:44;;;;;;;4.25;3.85;;;;;;;10.55;100;95286.81;;;;
2021/08/29 00:56:45;;;;;;;4.25;3.85;;;;;;;10.55;100;95286.81;;;;
2021/08/29 00:57:46;;;;;;;4.25;3.85;;;;;;;10.55;100;95286.81;;;;
2021/08/29 00:58:46;;;;;;;4.25;3.85;;;;;;;10.55;100;95286.81;;;;
2021/08/29 00:59:49;;;;;;;4.25;3.85;;;;;;;10.55;100;95286.81;;;;
2021/08/29 01:00:50;;;;;;;4.25;3.85;;;;;;;10.55;100;95286.81;;;;
2021/08/29 01:01:51;;;;;;;4.25;3.85;;;;;;;10.55;100;95286.81;;;;
2021/08/29 01:02:58;;;;;;;4.25;3.85;;;;;;;10.55;100;95286.81;;;;
2021/08/29 01:04:00;;;;;;;6.649999;4.3;;;;;;;10.6;100;95288.69;;;;
2021/08/29 01:05:05;;;;;;;6.649999;4.3;;;;;;;10.6;100;95288.69;;;;
2021/08/29 01:06:10;;;;;;;6.649999;4.3;;;;;;;10.6;100;95288.69;;;;
2021/08/29 01:07:22;;;;;;;6.649999;4.3;;;;;;;10.6;100;95288.69;;;;
2021/08/29 01:08:30;;;;;;;6.649999;4.3;;;;;;;10.6;100;95288.69;;;;
2021/08/29 01:09:34;;;;;;;6.649999;4.3;;;;;;;10.6;100;95288.69;;;;
2021/08/29 01:10:37;;;;;;;6.649999;4.3;;;;;;;10.6;100;95288.69;;;;
2021/08/29 01:11:42;;;;;;;6.649999;4.3;;;;;;;10.6;100;95288.69;;;;
2021/08/29 01:12:47;;;;;;;6.649999;4.3;;;;;;;10.6;100;95288.69;;;;
2021/08/29 01:13:50;;;;;;;6.649999;4.3;;;;;;;10.6;100;95288.69;;;;
2021/08/29 01:14:57;;;;;;;4.900001;4;;;;;;;10.68;100;95282.53;;;;
2021/08/29 01:16:01;;;;;;;4.900001;4;;;;;;;10.68;100;95282.53;;;;
2021/08/29 01:17:06;;;;;;;4.900001;4;;;;;;;10.68;100;95282.53;;;;
2021/08/29 01:18:07;;;;;;;4.900001;4;;;;;;;10.68;100;95282.53;;;;
2021/08/29 01:19:09;;;;;;;4.900001;4;;;;;;;10.68;100;95282.53;;;;
2021/08/29 01:20:14;;;;;;;4.900001;4;;;;;;;10.68;100;95282.53;;;;
2021/08/29 01:21:20;;;;;;;4.900001;4;;;;;;;10.68;100;95282.53;;;;
2021/08/29 01:22:25;;;;;;;4.900001;4;;;;;;;10.68;100;95282.53;;;;
2021/08/29 01:23:26;;;;;;;4.900001;4;;;;;;;10.68;100;95282.53;;;;
2021/08/29 01:24:28;;;;;;;4.900001;4;;;;;;;10.68;100;95282.53;;;;
2021/08/29 01:25:29;;;;;;;4.55;4.15;;;;;;;10.73;100;95289.38;;;;
2021/08/29 01:26:34;;;;;;;4.55;4.15;;;;;;;10.73;100;95289.38;;;;
2021/08/29 01:27:43;;;;;;;4.55;4.15;;;;;;;10.73;100;95289.38;;;;
2021/08/29 01:28:51;;;;;;;4.55;4.15;;;;;;;10.73;100;95289.38;;;;
2021/08/29 01:29:55;;;;;;;4.55;4.15;;;;;;;10.73;100;95289.38;;;;
2021/08/29 01:30:57;;;;;;;4.55;4.15;;;;;;;10.73;100;95289.38;;;;
2021/08/29 01:31:58;;;;;;;4.55;4.15;;;;;;;10.73;100;95289.38;;;;
2021/08/29 01:32:59;;;;;;;4.55;4.15;;;;;;;10.73;100;95289.38;;;;
2021/08/29 01:34:01;;;;;;;4.55;4.15;;;;;;;10.73;100;95289.38;;;;
2021/08/29 01:35:04;;;;;;;4.55;4.15;;;;;;;10.73;100;95289.38;;;;
2021/08/29 01:36:06;;;;;;;4.1;3.75;;;;;;;10.72;100;95285.99;;;;
2021/08/29 01:37:07;;;;;;;4.1;3.75;;;;;;;10.72;100;95285.99;;;;
2021/08/29 01:38:10;;;;;;;4.1;3.75;;;;;;;10.72;100;95285.99;;;;
2021/08/29 01:39:11;;;;;;;4.1;3.75;;;;;;;10.72;100;95285.99;;;;
2021/08/29 01:40:12;;;;;;;4.1;3.75;;;;;;;10.72;100;95285.99;;;;
2021/08/29 01:41:14;;;;;;;4.1;3.75;;;;;;;10.72;100;95285.99;;;;
2021/08/29 01:42:16;;;;;;;4.1;3.75;;;;;;;10.72;100;95285.99;;;;
2021/08/29 01:43:18;;;;;;;4.1;3.75;;;;;;;10.72;100;95285.99;;;;
2021/08/29 01:44:19;;;;;;;4.1;3.75;;;;;;;10.72;100;95285.99;;;;
2021/08/29 01:45:21;;;;;;;4.1;3.75;;;;;;;10.72;100;95285.99;;;;
2021/08/29 01:46:22;;;;;;;4.05;3.35;;;;;;;10.77;100;95278.41;;;;
2021/08/29 01:47:23;;;;;;;4.05;3.35;;;;;;;10.77;100;95278.41;;;;
2021/08/29 01:48:24;;;;;;;4.05;3.35;;;;;;;10.77;100;95278.41;;;;
2021/08/29 01:49:25;;;;;;;4.05;3.35;;;;;;;10.77;100;95278.41;;;;
2021/08/29 01:50:27;;;;;;;4.05;3.35;;;;;;;10.77;100;95278.41;;;;
2021/08/29 01:51:28;;;;;;;4.05;3.35;;;;;;;10.77;100;95278.41;;;;
2021/08/29 01:52:28;;;;;;;4.05;3.35;;;;;;;10.77;100;95278.41;;;;
2021/08/29 01:53:29;;;;;;;4.05;3.35;;;;;;;10.77;100;95278.41;;;;
2021/08/29 01:54:30;;;;;;;4.05;3.35;;;;;;;10.77;100;95278.41;;;;
2021/08/29 01:55:30;;;;;;;4.05;3.35;;;;;;;10.77;100;95278.41;;;;
2021/08/29 01:56:31;;;;;;;4.05;3.35;;;;;;;10.77;100;95278.41;;;;
2021/08/29 01:57:55;;;;;;;4.05;3.35;;;;;;;10.77;100;95278.41;;;;
2021/08/29 01:58:55;;;;;;;4.05;3.35;;;;;;;10.77;100;95278.41;;;;
2021/08/29 01:59:57;;;;;;;4.05;3.35;;;;;;;10.77;100;95278.41;;;;
2021/08/29 02:00:57;;;;;;;4.05;3.35;;;;;;;10.77;100;95278.41;;;;
2021/08/29 02:02:01;;;;;;;4.05;3.35;;;;;;;10.77;100;95278.41;;;;
2021/08/29 02:03:01;;;;;;;4.05;3.35;;;;;;;10.77;100;95278.41;;;;
2021/08/29 02:04:03;;;;;;;4.05;3.35;;;;;;;10.77;100;95278.41;;;;
2021/08/29 02:05:04;;;;;;;4.05;3.35;;;;;;;10.77;100;95278.41;;;;
2021/08/29 02:06:05;;;;;;;4.05;3.35;;;;;;;10.77;100;95278.41;;;;
2021/08/29 02:07:11;;;;;;;4.05;3.35;;;;;;;10.77;100;95278.41;;;;
2021/08/29 02:08:21;;;;;;;3.400001;3.05;;;;;;;10.77;100;95261.38;;;;
2021/08/29 02:09:24;;;;;;;3.400001;3.05;;;;;;;10.77;100;95261.38;;;;
2021/08/29 02:10:27;;;;;;;3.400001;3.05;;;;;;;10.77;100;95261.38;;;;
2021/08/29 02:11:29;;;;;;;3.400001;3.05;;;;;;;10.77;100;95261.38;;;;
2021/08/29 02:12:36;;;;;;;3.400001;3.05;;;;;;;10.77;100;95261.38;;;;
2021/08/29 02:13:46;;;;;;;3.400001;3.05;;;;;;;10.77;100;95261.38;;;;
2021/08/29 02:14:48;;;;;;;3.400001;3.05;;;;;;;10.77;100;95261.38;;;;
2021/08/29 02:16:04;;;;;;;3.400001;3.05;;;;;;;10.77;100;95261.38;;;;
2021/08/29 02:17:10;;;;;;;3.400001;3.05;;;;;;;10.77;100;95261.38;;;;
2021/08/29 02:18:12;;;;;;;3.95;3.15;;;;;;;10.7;100;95259.75;;;;
2021/08/29 02:19:13;;;;;;;3.95;3.15;;;;;;;10.7;100;95259.75;;;;
2021/08/29 02:20:18;;;;;;;3.95;3.15;;;;;;;10.7;100;95259.75;;;;
2021/08/29 02:21:24;;;;;;;3.95;3.15;;;;;;;10.7;100;95259.75;;;;
2021/08/29 02:22:26;;;;;;;3.95;3.15;;;;;;;10.7;100;95259.75;;;;
2021/08/29 02:23:29;;;;;;;3.95;3.15;;;;;;;10.7;100;95259.75;;;;
2021/08/29 02:24:30;;;;;;;3.95;3.15;;;;;;;10.7;100;95259.75;;;;
2021/08/29 02:25:31;;;;;;;3.95;3.15;;;;;;;10.7;100;95259.75;;;;
2021/08/29 02:26:32;;;;;;;3.95;3.15;;;;;;;10.7;100;95259.75;;;;
2021/08/29 02:27:33;;;;;;;3.95;3.15;;;;;;;10.7;100;95259.75;;;;
2021/08/29 02:28:36;;;;;;;3.95;3.15;;;;;;;10.7;100;95259.75;;;;
2021/08/29 02:29:37;;;;;;;4.5;3.3;;;;;;;10.69;100;95250.81;;;;
2021/08/29 02:30:38;;;;;;;4.5;3.3;;;;;;;10.69;100;95250.81;;;;
2021/08/29 02:31:40;;;;;;;4.5;3.3;;;;;;;10.69;100;95250.81;;;;
2021/08/29 02:32:40;;;;;;;4.5;3.3;;;;;;;10.69;100;95250.81;;;;
2021/08/29 02:33:43;;;;;;;4.5;3.3;;;;;;;10.69;100;95250.81;;;;
2021/08/29 02:34:43;;;;;;;4.5;3.3;;;;;;;10.69;100;95250.81;;;;
2021/08/29 02:35:44;;;;;;;4.5;3.3;;;;;;;10.69;100;95250.81;;;;
2021/08/29 02:36:46;;;;;;;4.5;3.3;;;;;;;10.69;100;95250.81;;;;
2021/08/29 02:37:49;;;;;;;4.5;3.3;;;;;;;10.69;100;95250.81;;;;
2021/08/29 02:38:50;;;;;;;4.5;3.3;;;;;;;10.69;100;95250.81;;;;
2021/08/29 02:39:55;;;;;;;3.6;3.3;;;;;;;10.69;100;95257.67;;;;
2021/08/29 02:40:57;;;;;;;3.6;3.3;;;;;;;10.69;100;95257.67;;;;
2021/08/29 02:42:00;;;;;;;3.6;3.3;;;;;;;10.69;100;95257.67;;;;
2021/08/29 02:43:03;;;;;;;3.6;3.3;;;;;;;10.69;100;95257.67;;;;
2021/08/29 02:44:04;;;;;;;3.6;3.3;;;;;;;10.69;100;95257.67;;;;
2021/08/29 02:45:06;;;;;;;3.6;3.3;;;;;;;10.69;100;95257.67;;;;
2021/08/29 02:46:10;;;;;;;3.6;3.3;;;;;;;10.69;100;95257.67;;;;
2021/08/29 02:47:12;;;;;;;3.6;3.3;;;;;;;10.69;100;95257.67;;;;
2021/08/29 02:48:13;;;;;;;3.6;3.3;;;;;;;10.69;100;95257.67;;;;
2021/08/29 02:49:14;;;;;;;3.6;3.3;;;;;;;10.69;100;95257.67;;;;
2021/08/29 02:50:18;;;;;;;3.65;3.35;;;;;;;10.63;100;95249.61;;;;
2021/08/29 02:51:19;;;;;;;3.65;3.35;;;;;;;10.63;100;95249.61;;;;
2021/08/29 02:52:22;;;;;;;3.65;3.35;;;;;;;10.63;100;95249.61;;;;
2021/08/29 02:53:23;;;;;;;3.65;3.35;;;;;;;10.63;100;95249.61;;;;
2021/08/29 02:54:24;;;;;;;3.65;3.35;;;;;;;10.63;100;95249.61;;;;
2021/08/29 02:55:27;;;;;;;3.65;3.35;;;;;;;10.63;100;95249.61;;;;
2021/08/29 02:56:27;;;;;;;3.65;3.35;;;;;;;10.63;100;95249.61;;;;
2021/08/29 02:57:29;;;;;;;3.65;3.35;;;;;;;10.63;100;95249.61;;;;
2021/08/29 02:58:34;;;;;;;3.65;3.35;;;;;;;10.63;100;95249.61;;;;
2021/08/29 02:59:35;;;;;;;3.65;3.35;;;;;;;10.63;100;95249.61;;;;
2021/08/29 03:00:36;;;;;;;3.65;3.35;;;;;;;10.63;100;95249.61;;;;
2021/08/29 03:01:37;;;;;;;4.3;3.900001;;;;;;;10.6;100;95254.11;;;;
2021/08/29 03:02:38;;;;;;;4.3;3.900001;;;;;;;10.6;100;95254.11;;;;
2021/08/29 03:03:39;;;;;;;4.3;3.900001;;;;;;;10.6;100;95254.11;;;;
2021/08/29 03:04:40;;;;;;;4.3;3.900001;;;;;;;10.6;100;95254.11;;;;
2021/08/29 03:05:40;;;;;;;4.3;3.900001;;;;;;;10.6;100;95254.11;;;;
2021/08/29 03:06:41;;;;;;;4.3;3.900001;;;;;;;10.6;100;95254.11;;;;
2021/08/29 03:07:42;;;;;;;4.3;3.900001;;;;;;;10.6;100;95254.11;;;;
2021/08/29 03:08:43;;;;;;;4.3;3.900001;;;;;;;10.6;100;95254.11;;;;
2021/08/29 03:09:44;;;;;;;4.3;3.900001;;;;;;;10.6;100;95254.11;;;;
2021/08/29 03:10:45;;;;;;;4.3;3.900001;;;;;;;10.6;100;95254.11;;;;
2021/08/29 03:11:46;;;;;;;4.9;4.5;;;;;;;10.64;100;95252.58;;;;
2021/08/29 03:12:47;;;;;;;4.9;4.5;;;;;;;10.64;100;95252.58;;;;
2021/08/29 03:13:49;;;;;;;4.9;4.5;;;;;;;10.64;100;95252.58;;;;
2021/08/29 03:14:49;;;;;;;4.9;4.5;;;;;;;10.64;100;95252.58;;;;
2021/08/29 03:15:51;;;;;;;4.9;4.5;;;;;;;10.64;100;95252.58;;;;
2021/08/29 03:16:51;;;;;;;4.9;4.5;;;;;;;10.64;100;95252.58;;;;
2021/08/29 03:17:52;;;;;;;4.9;4.5;;;;;;;10.64;100;95252.58;;;;
2021/08/29 03:18:53;;;;;;;4.9;4.5;;;;;;;10.64;100;95252.58;;;;
2021/08/29 03:19:54;;;;;;;4.9;4.5;;;;;;;10.64;100;95252.58;;;;
2021/08/29 03:20:55;;;;;;;4.9;4.5;;;;;;;10.64;100;95252.58;;;;
2021/08/29 03:21:56;;;;;;;4.9;4.5;;;;;;;10.64;100;95252.58;;;;
2021/08/29 03:22:57;;;;;;;6.1;4.950001;;;;;;;10.79;100;95238.07;;;;
2021/08/29 03:23:58;;;;;;;6.1;4.950001;;;;;;;10.79;100;95238.07;;;;
2021/08/29 03:24:59;;;;;;;6.1;4.950001;;;;;;;10.79;100;95238.07;;;;
2021/08/29 03:26:00;;;;;;;6.1;4.950001;;;;;;;10.79;100;95238.07;;;;
2021/08/29 03:27:01;;;;;;;6.1;4.950001;;;;;;;10.79;100;95238.07;;;;
2021/08/29 03:28:02;;;;;;;6.1;4.950001;;;;;;;10.79;100;95238.07;;;;
2021/08/29 03:29:04;;;;;;;6.1;4.950001;;;;;;;10.79;100;95238.07;;;;
2021/08/29 03:30:05;;;;;;;6.1;4.950001;;;;;;;10.79;100;95238.07;;;;
2021/08/29 03:31:07;;;;;;;6.1;4.950001;;;;;;;10.79;100;95238.07;;;;
2021/08/29 03:32:07;;;;;;;6.1;4.950001;;;;;;;10.79;100;95238.07;;;;
2021/08/29 03:33:08;;;;;;;6.1;4.950001;;;;;;;10.79;100;95238.07;;;;
2021/08/29 03:34:10;;;;;;;6.1;4.950001;;;;;;;10.79;100;95238.07;;;;
2021/08/29 03:35:13;;;;;;;6.1;4.950001;;;;;;;10.79;100;95238.07;;;;
2021/08/29 03:36:15;;;;;;;6.1;4.950001;;;;;;;10.79;100;95238.07;;;;
2021/08/29 03:37:21;;;;;;;6.1;4.950001;;;;;;;10.79;100;95238.07;;;;
2021/08/29 03:38:22;;;;;;;6.1;4.950001;;;;;;;10.79;100;95238.07;;;;
2021/08/29 03:39:22;;;;;;;6.1;4.950001;;;;;;;10.79;100;95238.07;;;;
2021/08/29 03:40:26;;;;;;;6.1;4.950001;;;;;;;10.79;100;95238.07;;;;
2021/08/29 03:41:27;;;;;;;6.1;4.950001;;;;;;;10.79;100;95238.07;;;;
2021/08/29 03:42:29;;;;;;;6.1;4.950001;;;;;;;10.79;100;95238.07;;;;
2021/08/29 03:43:31;;;;;;;6.1;4.950001;;;;;;;10.79;100;95238.07;;;;
2021/08/29 03:44:32;;;;;;;5.25;4.75;;;;;;;10.96;100;95220.45;;;;
2021/08/29 03:45:34;;;;;;;5.25;4.75;;;;;;;10.96;100;95220.45;;;;
2021/08/29 03:46:35;;;;;;;5.25;4.75;;;;;;;10.96;100;95220.45;;;;
2021/08/29 03:47:36;;;;;;;5.25;4.75;;;;;;;10.96;100;95220.45;;;;
2021/08/29 03:48:37;;;;;;;5.25;4.75;;;;;;;10.96;100;95220.45;;;;
2021/08/29 03:49:37;;;;;;;5.25;4.75;;;;;;;10.96;100;95220.45;;;;
2021/08/29 03:50:39;;;;;;;5.25;4.75;;;;;;;10.96;100;95220.45;;;;
2021/08/29 03:51:40;;;;;;;5.25;4.75;;;;;;;10.96;100;95220.45;;;;
2021/08/29 03:52:42;;;;;;;5.25;4.75;;;;;;;10.96;100;95220.45;;;;
2021/08/29 03:53:43;;;;;;;5.25;4.75;;;;;;;10.96;100;95220.45;;;;
2021/08/29 03:54:44;;;;;;;5.75;4.9;;;;;;;11.04;100;95220.09;;;;
2021/08/29 03:55:45;;;;;;;5.75;4.9;;;;;;;11.04;100;95220.09;;;;
2021/08/29 03:56:47;;;;;;;5.75;4.9;;;;;;;11.04;100;95220.09;;;;
2021/08/29 03:57:50;;;;;;;5.75;4.9;;;;;;;11.04;100;95220.09;;;;
2021/08/29 03:58:53;;;;;;;5.75;4.9;;;;;;;11.04;100;95220.09;;;;
2021/08/29 03:59:55;;;;;;;5.75;4.9;;;;;;;11.04;100;95220.09;;;;
2021/08/29 04:00:56;;;;;;;5.75;4.9;;;;;;;11.04;100;95220.09;;;;
2021/08/29 04:01:56;;;;;;;5.75;4.9;;;;;;;11.04;100;95220.09;;;;
2021/08/29 04:02:57;;;;;;;5.75;4.9;;;;;;;11.04;100;95220.09;;;;
2021/08/29 04:03:58;;;;;;;5.75;4.9;;;;;;;11.04;100;95220.09;;;;
2021/08/29 04:04:59;;;;;;;5.7;5.1;;;;;;;11.12;100;95215.23;;;;
2021/08/29 04:06:00;;;;;;;5.7;5.1;;;;;;;11.12;100;95215.23;;;;
2021/08/29 04:07:02;;;;;;;5.7;5.1;;;;;;;11.12;100;95215.23;;;;
2021/08/29 04:08:05;;;;;;;5.7;5.1;;;;;;;11.12;100;95215.23;;;;
2021/08/29 04:09:11;;;;;;;5.7;5.1;;;;;;;11.12;100;95215.23;;;;
2021/08/29 04:10:14;;;;;;;5.7;5.1;;;;;;;11.12;100;95215.23;;;;
2021/08/29 04:11:16;;;;;;;5.7;5.1;;;;;;;11.12;100;95215.23;;;;
2021/08/29 04:12:22;;;;;;;5.7;5.1;;;;;;;11.12;100;95215.23;;;;
2021/08/29 04:13:27;;;;;;;5.7;5.1;;;;;;;11.12;100;95215.23;;;;
2021/08/29 04:14:30;;;;;;;5.7;5.1;;;;;;;11.12;100;95215.23;;;;
2021/08/29 04:15:30;;;;;;;5.7;5.1;;;;;;;11.12;100;95215.23;;;;
2021/08/29 04:16:31;;;;;;;6.05;5.45;;;;;;;11.12;100;95215.78;;;;
2021/08/29 04:17:33;;;;;;;6.05;5.45;;;;;;;11.12;100;95215.78;;;;
2021/08/29 04:18:36;;;;;;;6.05;5.45;;;;;;;11.12;100;95215.78;;;;
2021/08/29 04:19:41;;;;;;;6.05;5.45;;;;;;;11.12;100;95215.78;;;;
2021/08/29 04:20:42;;;;;;;6.05;5.45;;;;;;;11.12;100;95215.78;;;;
2021/08/29 04:21:43;;;;;;;6.05;5.45;;;;;;;11.12;100;95215.78;;;;
2021/08/29 04:22:44;;;;;;;6.05;5.45;;;;;;;11.12;100;95215.78;;;;
2021/08/29 04:23:45;;;;;;;6.05;5.45;;;;;;;11.12;100;95215.78;;;;
2021/08/29 04:24:46;;;;;;;6.05;5.45;;;;;;;11.12;100;95215.78;;;;
2021/08/29 04:25:47;;;;;;;6.05;5.45;;;;;;;11.12;100;95215.78;;;;
2021/08/29 04:26:48;;;;;;;5.8;5.199999;;;;;;;11.11;100;95209.97;;;;
2021/08/29 04:27:49;;;;;;;5.8;5.199999;;;;;;;11.11;100;95209.97;;;;
2021/08/29 04:28:50;;;;;;;5.8;5.199999;;;;;;;11.11;100;95209.97;;;;
2021/08/29 04:29:51;;;;;;;5.8;5.199999;;;;;;;11.11;100;95209.97;;;;
2021/08/29 04:30:52;;;;;;;5.8;5.199999;;;;;;;11.11;100;95209.97;;;;
2021/08/29 04:31:56;;;;;;;5.8;5.199999;;;;;;;11.11;100;95209.97;;;;
2021/08/29 04:32:57;;;;;;;5.8;5.199999;;;;;;;11.11;100;95209.97;;;;
2021/08/29 04:33:58;;;;;;;5.8;5.199999;;;;;;;11.11;100;95209.97;;;;
2021/08/29 04:35:01;;;;;;;5.8;5.199999;;;;;;;11.11;100;95209.97;;;;
2021/08/29 04:36:02;;;;;;;5.8;5.199999;;;;;;;11.11;100;95209.97;;;;
2021/08/29 04:37:03;;;;;;;6.550001;5.95;;;;;;;11.08;100;95216.38;;;;
2021/08/29 04:38:06;;;;;;;6.550001;5.95;;;;;;;11.08;100;95216.38;;;;
2021/08/29 04:39:08;;;;;;;6.550001;5.95;;;;;;;11.08;100;95216.38;;;;
2021/08/29 04:40:08;;;;;;;6.550001;5.95;;;;;;;11.08;100;95216.38;;;;
2021/08/29 04:41:09;;;;;;;6.550001;5.95;;;;;;;11.08;100;95216.38;;;;
2021/08/29 04:42:10;;;;;;;6.550001;5.95;;;;;;;11.08;100;95216.38;;;;
2021/08/29 04:43:10;;;;;;;6.550001;5.95;;;;;;;11.08;100;95216.38;;;;
2021/08/29 04:44:11;;;;;;;6.550001;5.95;;;;;;;11.08;100;95216.38;;;;
2021/08/29 04:45:12;;;;;;;6.550001;5.95;;;;;;;11.08;100;95216.38;;;;
2021/08/29 04:46:14;;;;;;;6.550001;5.95;;;;;;;11.08;100;95216.38;;;;
2021/08/29 04:47:15;;;;;;;6.550001;5.95;;;;;;;11.08;100;95216.38;;;;
2021/08/29 04:48:15;;;;;;;7.05;6.35;;;;;;;11.1;100;95221.95;;;;
2021/08/29 04:49:16;;;;;;;7.05;6.35;;;;;;;11.1;100;95221.95;;;;
2021/08/29 04:50:16;;;;;;;7.05;6.35;;;;;;;11.1;100;95221.95;;;;
2021/08/29 04:51:17;;;;;;;7.05;6.35;;;;;;;11.1;100;95221.95;;;;
2021/08/29 04:52:18;;;;;;;7.05;6.35;;;;;;;11.1;100;95221.95;;;;
2021/08/29 04:53:18;;;;;;;7.05;6.35;;;;;;;11.1;100;95221.95;;;;
2021/08/29 04:54:19;;;;;;;7.05;6.35;;;;;;;11.1;100;95221.95;;;;
2021/08/29 04:55:19;;;;;;;7.05;6.35;;;;;;;11.1;100;95221.95;;;;
2021/08/29 04:56:20;;;;;;;7.05;6.35;;;;;;;11.1;100;95221.95;;;;
2021/08/29 04:57:20;;;;;;;7.05;6.35;;;;;;;11.1;100;95221.95;;;;
2021/08/29 04:58:21;;;;;;;7.799999;7;;;;;;;11.18;100;95220.62;;;;
2021/08/29 04:59:21;;;;;;;7.799999;7;;;;;;;11.18;100;95220.62;;;;
2021/08/29 05:00:22;;;;;;;7.799999;7;;;;;;;11.18;100;95220.62;;;;
2021/08/29 05:01:26;;;;;;;7.799999;7;;;;;;;11.18;100;95220.62;;;;
2021/08/29 05:02:27;;;;;;;7.799999;7;;;;;;;11.18;100;95220.62;;;;
2021/08/29 05:03:27;;;;;;;7.799999;7;;;;;;;11.18;100;95220.62;;;;
2021/08/29 05:04:28;;;;;;;7.799999;7;;;;;;;11.18;100;95220.62;;;;
2021/08/29 05:05:28;;;;;;;7.799999;7;;;;;;;11.18;100;95220.62;;;;
2021/08/29 05:06:29;;;;;;;7.799999;7;;;;;;;11.18;100;95220.62;;;;
2021/08/29 05:07:29;;;;;;;7.799999;7;;;;;;;11.18;100;95220.62;;;;
2021/08/29 05:08:30;;;;;;;7.799999;7;;;;;;;11.18;100;95220.62;;;;
2021/08/29 05:09:30;;;;;;;8.200002;7.4;;;;;;;11.23;100;95226.11;;;;
2021/08/29 05:10:31;;;;;;;8.200002;7.4;;;;;;;11.23;100;95226.11;;;;
2021/08/29 05:11:32;;;;;;;8.200002;7.4;;;;;;;11.23;100;95226.11;;;;
2021/08/29 05:12:32;;;;;;;8.200002;7.4;;;;;;;11.23;100;95226.11;;;;
2021/08/29 05:13:33;;;;;;;8.200002;7.4;;;;;;;11.23;100;95226.11;;;;
2021/08/29 05:14:33;;;;;;;8.200002;7.4;;;;;;;11.23;100;95226.11;;;;
2021/08/29 05:15:34;;;;;;;8.200002;7.4;;;;;;;11.23;100;95226.11;;;;
2021/08/29 05:16:34;;;;;;;8.200002;7.4;;;;;;;11.23;100;95226.11;;;;
2021/08/29 05:17:35;;;;;;;8.200002;7.4;;;;;;;11.23;100;95226.11;;;;
2021/08/29 05:18:35;;;;;;;8.200002;7.4;;;;;;;11.23;100;95226.11;;;;
2021/08/29 05:19:36;;;;;;;8.200002;7.4;;;;;;;11.23;100;95226.11;;;;
2021/08/29 05:20:36;;;;;;;8.849999;7.849999;;;;;;;11.28;100;95222.15;;;;
2021/08/29 05:21:37;;;;;;;8.849999;7.849999;;;;;;;11.28;100;95222.15;;;;
2021/08/29 05:22:37;;;;;;;8.849999;7.849999;;;;;;;11.28;100;95222.15;;;;
2021/08/29 05:23:38;;;;;;;8.849999;7.849999;;;;;;;11.28;100;95222.15;;;;
2021/08/29 05:24:39;;;;;;;8.849999;7.849999;;;;;;;11.28;100;95222.15;;;;
2021/08/29 05:25:40;;;;;;;8.849999;7.849999;;;;;;;11.28;100;95222.15;;;;
2021/08/29 05:26:40;;;;;;;8.849999;7.849999;;;;;;;11.28;100;95222.15;;;;
2021/08/29 05:27:41;;;;;;;8.849999;7.849999;;;;;;;11.28;100;95222.15;;;;
2021/08/29 05:28:42;;;;;;;8.849999;7.849999;;;;;;;11.28;100;95222.15;;;;
2021/08/29 05:29:42;;;;;;;8.849999;7.849999;;;;;;;11.28;100;95222.15;;;;
2021/08/29 05:30:43;;;;;;;8.950002;8.050001;;;;;;;11.34;100;95218.49;;;;
2021/08/29 05:31:43;;;;;;;8.950002;8.050001;;;;;;;11.34;100;95218.49;;;;
2021/08/29 05:32:44;;;;;;;8.950002;8.050001;;;;;;;11.34;100;95218.49;;;;
2021/08/29 05:33:44;;;;;;;8.950002;8.050001;;;;;;;11.34;100;95218.49;;;;
2021/08/29 05:34:45;;;;;;;8.950002;8.050001;;;;;;;11.34;100;95218.49;;;;
2021/08/29 05:35:45;;;;;;;8.950002;8.050001;;;;;;;11.34;100;95218.49;;;;
2021/08/29 05:36:46;;;;;;;8.950002;8.050001;;;;;;;11.34;100;95218.49;;;;
2021/08/29 05:37:46;;;;;;;8.950002;8.050001;;;;;;;11.34;100;95218.49;;;;
2021/08/29 05:38:47;;;;;;;8.950002;8.050001;;;;;;;11.34;100;95218.49;;;;
2021/08/29 05:39:47;;;;;;;8.950002;8.050001;;;;;;;11.34;100;95218.49;;;;
2021/08/29 05:40:48;;;;;;;8.950002;8.050001;;;;;;;11.34;100;95218.49;;;;
2021/08/29 05:41:49;;;;;;;9.2;8.300001;;;;;;;11.45;100;95226.67;;;;
2021/08/29 05:42:49;;;;;;;9.2;8.300001;;;;;;;11.45;100;95226.67;;;;
2021/08/29 05:43:50;;;;;;;9.2;8.300001;;;;;;;11.45;100;95226.67;;;;
2021/08/29 05:44:50;;;;;;;9.2;8.300001;;;;;;;11.45;100;95226.67;;;;
2021/08/29 05:45:51;;;;;;;9.2;8.300001;;;;;;;11.45;100;95226.67;;;;
2021/08/29 05:46:51;;;;;;;9.2;8.300001;;;;;;;11.45;100;95226.67;;;;
2021/08/29 05:47:52;;;;;;;9.2;8.300001;;;;;;;11.45;100;95226.67;;;;
2021/08/29 05:48:53;;;;;;;9.2;8.300001;;;;;;;11.45;100;95226.67;;;;
2021/08/29 05:49:54;;;;;;;9.2;8.300001;;;;;;;11.45;100;95226.67;;;;
2021/08/29 05:50:54;;;;;;;9.2;8.300001;;;;;;;11.45;100;95226.67;;;;
2021/08/29 05:51:55;;;;;;;9.700002;8.1;;;;;;;11.59;100;95214.37;;;;
2021/08/29 05:52:56;;;;;;;9.700002;8.1;;;;;;;11.59;100;95214.37;;;;
2021/08/29 05:53:56;;;;;;;9.700002;8.1;;;;;;;11.59;100;95214.37;;;;
2021/08/29 05:54:56;;;;;;;9.700002;8.1;;;;;;;11.59;100;95214.37;;;;
2021/08/29 05:55:57;;;;;;;9.700002;8.1;;;;;;;11.59;100;95214.37;;;;
2021/08/29 05:56:58;;;;;;;9.700002;8.1;;;;;;;11.59;100;95214.37;;;;
2021/08/29 05:57:58;;;;;;;9.700002;8.1;;;;;;;11.59;100;95214.37;;;;
2021/08/29 05:58:59;;;;;;;9.700002;8.1;;;;;;;11.59;100;95214.37;;;;
2021/08/29 05:59:59;;;;;;;9.700002;8.1;;;;;;;11.59;100;95214.37;;;;
2021/08/29 06:01:00;;;;;;;9.700002;8.1;;;;;;;11.59;100;95214.37;;;;
2021/08/29 06:02:00;;;;;;;9.700002;8.1;;;;;;;11.59;100;95214.37;;;;
2021/08/29 06:03:01;;;;;;;8.249999;7.45;;;;;;;11.83;100;95223.72;;;;
2021/08/29 06:04:01;;;;;;;8.249999;7.45;;;;;;;11.83;100;95223.72;;;;
2021/08/29 06:05:02;;;;;;;8.249999;7.45;;;;;;;11.83;100;95223.72;;;;
2021/08/29 06:06:04;;;;;;;8.249999;7.45;;;;;;;11.83;100;95223.72;;;;
2021/08/29 06:07:05;;;;;;;8.249999;7.45;;;;;;;11.83;100;95223.72;;;;
2021/08/29 06:08:06;;;;;;;8.249999;7.45;;;;;;;11.83;100;95223.72;;;;
2021/08/29 06:09:06;;;;;;;8.249999;7.45;;;;;;;11.83;100;95223.72;;;;
2021/08/29 06:10:07;;;;;;;8.249999;7.45;;;;;;;11.83;100;95223.72;;;;
2021/08/29 06:11:09;;;;;;;8.249999;7.45;;;;;;;11.83;100;95223.72;;;;